Time;durP1;ratioP1;P1;durP2;ratioP2;P2;SDS_P1;SDS_P2;PMS_P1;PMS_P2;Temp;Humidity;BMP_temperature;BMP_pressure;BME280_temperature;BME280_humidity;BME280_pressure;Samples;Min_cycle;Max_cycle;Signal;HPM_P1;HPM_P2
2023/05/04 00:01:45;;;;;;;2.88;1.35;;;5.40;99.90;;;;;;4805391;29;20057;-83
2023/05/04 00:04:12;;;;;;;2.55;1.30;;;5.40;99.90;;;;;;4805412;29;20055;-82
2023/05/04 00:06:38;;;;;;;3.15;1.48;;;5.40;99.90;;;;;;4806517;29;20047;-82
2023/05/04 00:09:07;;;;;;;4.75;1.33;;;6.00;99.90;;;;;;4799528;29;20076;-82
2023/05/04 00:11:33;;;;;;;4.50;1.58;;;6.40;99.90;;;;;;4823533;29;20054;-82
2023/05/04 00:13:58;;;;;;;2.47;1.23;;;5.30;99.90;;;;;;4822728;29;20404;-82
2023/05/04 00:16:24;;;;;;;3.13;1.33;;;6.00;99.90;;;;;;4804798;29;20103;-82
2023/05/04 00:18:50;;;;;;;3.50;1.40;;;5.40;99.90;;;;;;4806051;29;20460;-83
2023/05/04 00:21:16;;;;;;;4.43;1.55;;;5.30;99.90;;;;;;4804986;29;20065;-82
2023/05/04 00:23:41;;;;;;;3.78;1.88;;;5.20;99.90;;;;;;4789999;29;20053;-82
2023/05/04 00:26:07;;;;;;;4.00;1.40;;;5.90;99.90;;;;;;4805534;29;20047;-82
2023/05/04 00:28:33;;;;;;;2.35;1.35;;;6.10;99.90;;;;;;4820301;29;20051;-82
2023/05/04 00:30:58;;;;;;;4.53;1.58;;;5.60;99.90;;;;;;4817765;29;20065;-82
2023/05/04 00:33:24;;;;;;;5.75;1.70;;;5.10;99.90;;;;;;4821267;29;20074;-84
2023/05/04 00:35:50;;;;;;;3.33;2.08;;;5.40;99.90;;;;;;4825787;29;20051;-82
2023/05/04 00:38:17;;;;;;;5.05;2.30;;;5.50;99.90;;;;;;4810228;29;20050;-82
2023/05/04 00:40:43;;;;;;;4.75;1.70;;;5.70;99.90;;;;;;4819638;29;20078;-82
2023/05/04 00:43:09;;;;;;;3.40;1.90;;;4.70;99.90;;;;;;4813192;29;20057;-82
2023/05/04 00:45:35;;;;;;;3.00;1.45;;;5.00;99.90;;;;;;4816102;29;20058;-82
2023/05/04 00:48:01;;;;;;;3.05;1.42;;;4.80;99.90;;;;;;4825694;29;20129;-83
2023/05/04 00:50:28;;;;;;;4.15;2.05;;;4.90;99.90;;;;;;4826274;29;20054;-82
2023/05/04 00:52:57;;;;;;;5.13;2.08;;;5.30;99.90;;;;;;4822863;29;20054;-82
2023/05/04 00:55:23;;;;;;;5.70;1.88;;;4.80;99.90;;;;;;4808347;29;20130;-82
2023/05/04 00:57:49;;;;;;;3.83;1.60;;;5.60;99.90;;;;;;4811755;29;20081;-82
2023/05/04 01:00:15;;;;;;;3.17;1.80;;;4.80;99.90;;;;;;4812529;29;20047;-82
2023/05/04 01:02:42;;;;;;;4.35;1.95;;;4.80;99.90;;;;;;4810539;29;20039;-83
2023/05/04 01:05:09;;;;;;;5.35;1.73;;;4.80;99.90;;;;;;4808129;29;20412;-83
2023/05/04 01:08:11;;;;;;;3.08;1.83;;;5.10;99.90;;;;;;4803979;29;20054;-83
2023/05/04 01:10:51;;;;;;;3.40;1.50;;;4.80;99.90;;;;;;4737646;30;20071;-82
2023/05/04 01:13:20;;;;;;;4.20;1.50;;;4.80;99.90;;;;;;4746634;30;20188;-83
2023/05/04 01:15:48;;;;;;;2.65;1.70;;;5.00;99.90;;;;;;4720630;30;20152;-82
2023/05/04 01:18:15;;;;;;;5.00;1.65;;;5.20;99.90;;;;;;4719819;30;20064;-82
2023/05/04 01:20:41;;;;;;;3.28;1.35;;;5.40;99.90;;;;;;4749184;29;20147;-83
2023/05/04 01:23:08;;;;;;;4.68;1.50;;;5.60;99.90;;;;;;4751853;30;20052;-84
2023/05/04 01:25:58;;;;;;;3.03;1.48;;;4.90;99.90;;;;;;4736311;30;20102;-82
2023/05/04 01:28:47;;;;;;;2.13;1.10;;;4.70;99.90;;;;;;4719719;30;20057;-84
2023/05/04 01:31:15;;;;;;;2.83;1.60;;;4.70;99.90;;;;;;4734341;30;20056;-83
2023/05/04 01:33:43;;;;;;;3.03;1.73;;;5.20;99.90;;;;;;4734178;30;20207;-82
2023/05/04 01:36:09;;;;;;;3.95;1.73;;;4.70;99.90;;;;;;4748647;30;20065;-83
2023/05/04 01:38:35;;;;;;;3.17;1.60;;;4.70;99.90;;;;;;4751542;30;20052;-84
2023/05/04 01:41:01;;;;;;;5.82;1.70;;;4.80;99.90;;;;;;4751823;30;20071;-82
2023/05/04 01:43:26;;;;;;;2.38;1.15;;;4.70;99.90;;;;;;4751739;30;20044;-83
2023/05/04 01:45:52;;;;;;;3.45;1.65;;;4.30;99.90;;;;;;4738469;29;20518;-84
2023/05/04 01:48:18;;;;;;;2.17;1.35;;;4.70;99.90;;;;;;4798265;29;20461;-82
2023/05/04 01:50:44;;;;;;;3.20;1.20;;;4.60;99.90;;;;;;4806166;29;20530;-83
2023/05/04 01:53:09;;;;;;;3.95;1.48;;;4.60;99.90;;;;;;4825449;29;20039;-82
2023/05/04 01:55:35;;;;;;;4.63;1.50;;;5.40;99.90;;;;;;4825549;29;20572;-83
2023/05/04 01:58:01;;;;;;;5.78;2.05;;;5.30;99.90;;;;;;4797066;29;20053;-82
2023/05/04 02:00:27;;;;;;;4.45;1.90;;;5.10;99.90;;;;;;4807255;29;20501;-84
2023/05/04 02:02:52;;;;;;;3.30;1.38;;;4.80;99.90;;;;;;4808157;29;20047;-85
2023/05/04 02:05:18;;;;;;;1.90;1.25;;;5.40;99.90;;;;;;4790968;29;20492;-83
2023/05/04 02:07:44;;;;;;;4.72;1.35;;;4.60;99.90;;;;;;4807005;29;20050;-83
2023/05/04 02:10:10;;;;;;;3.28;1.80;;;5.30;99.90;;;;;;4807965;29;20103;-82
2023/05/04 02:12:35;;;;;;;2.75;1.42;;;4.60;99.90;;;;;;4807852;29;20046;-82
2023/05/04 02:15:03;;;;;;;3.13;1.58;;;5.30;99.90;;;;;;4790402;29;20051;-84
2023/05/04 02:17:29;;;;;;;4.07;1.40;;;4.60;99.90;;;;;;4806650;29;20070;-83
2023/05/04 02:19:54;;;;;;;4.53;2.03;;;4.60;99.90;;;;;;4807729;29;20047;-82
2023/05/04 02:22:20;;;;;;;3.47;1.50;;;4.60;99.90;;;;;;4761032;29;20063;-82
2023/05/04 02:24:46;;;;;;;3.42;1.35;;;4.80;99.90;;;;;;4821515;29;20377;-83
2023/05/04 02:27:11;;;;;;;2.65;1.33;;;4.90;99.90;;;;;;4824894;29;20047;-83
2023/05/04 02:29:37;;;;;;;3.42;1.60;;;5.10;99.90;;;;;;4806790;29;20049;-85
2023/05/04 02:32:03;;;;;;;4.78;1.70;;;4.40;99.90;;;;;;4792736;29;20047;-83
2023/05/04 02:34:29;;;;;;;3.78;1.92;;;4.60;99.90;;;;;;4813565;29;20058;-84
2023/05/04 02:36:55;;;;;;;5.63;1.95;;;3.60;99.90;;;;;;4824490;29;20089;-82
2023/05/04 02:39:21;;;;;;;7.40;1.85;;;4.90;99.90;;;;;;4808317;29;20042;-82
2023/05/04 02:41:46;;;;;;;3.28;1.40;;;4.60;99.90;;;;;;4812238;29;20496;-82
2023/05/04 02:44:12;;;;;;;4.65;1.83;;;5.00;99.90;;;;;;4806592;29;20086;-82
2023/05/04 02:46:38;;;;;;;2.78;1.80;;;4.70;99.90;;;;;;4820466;29;20045;-83
2023/05/04 02:49:03;;;;;;;4.10;1.95;;;5.70;99.90;;;;;;4824662;29;20436;-84
2023/05/04 02:51:29;;;;;;;4.65;2.08;;;5.40;99.90;;;;;;4822967;29;20077;-82
2023/05/04 02:53:55;;;;;;;7.30;2.30;;;5.60;99.90;;;;;;4823919;29;20496;-81
2023/05/04 02:56:20;;;;;;;6.63;2.35;;;4.40;99.90;;;;;;4813300;29;20074;-83
2023/05/04 02:58:46;;;;;;;5.15;2.00;;;4.70;99.90;;;;;;4805556;29;20043;-82
2023/05/04 03:01:12;;;;;;;3.95;1.83;;;4.80;99.90;;;;;;4806059;29;20043;-82
2023/05/04 03:03:37;;;;;;;4.82;2.10;;;5.00;99.90;;;;;;4807190;29;20050;-82
2023/05/04 03:06:03;;;;;;;3.30;1.67;;;4.90;99.90;;;;;;4808688;29;20495;-82
2023/05/04 03:08:29;;;;;;;4.00;1.75;;;4.80;99.90;;;;;;4823901;29;20050;-82
2023/05/04 03:10:55;;;;;;;6.18;2.47;;;4.80;99.90;;;;;;4824423;29;20054;-83
2023/05/04 03:13:21;;;;;;;5.97;2.05;;;4.40;99.90;;;;;;4820943;29;20069;-81
2023/05/04 03:15:47;;;;;;;4.95;2.13;;;5.30;99.90;;;;;;4823526;29;20119;-82
2023/05/04 03:18:12;;;;;;;6.35;2.25;;;4.80;99.90;;;;;;4810183;29;20500;-81
2023/05/04 03:20:38;;;;;;;5.20;2.65;;;5.70;99.90;;;;;;4789665;29;20145;-82
2023/05/04 03:23:04;;;;;;;3.25;1.85;;;4.80;99.90;;;;;;4806769;29;20077;-82
2023/05/04 03:25:30;;;;;;;9.60;3.15;;;5.20;99.90;;;;;;4805876;29;20059;-82
2023/05/04 03:27:56;;;;;;;4.25;2.13;;;4.90;99.90;;;;;;4819138;29;20563;-82
2023/05/04 03:30:21;;;;;;;5.95;2.30;;;4.90;99.90;;;;;;4823421;29;20123;-83
2023/05/04 03:32:48;;;;;;;8.30;2.80;;;5.70;99.90;;;;;;4823860;29;20054;-82
2023/05/04 03:35:13;;;;;;;5.03;2.75;;;5.60;99.90;;;;;;4807463;29;20046;-82
2023/05/04 03:37:39;;;;;;;6.38;2.35;;;5.00;99.90;;;;;;4790553;29;20054;-82
2023/05/04 03:40:05;;;;;;;4.93;2.53;;;5.00;99.90;;;;;;4789435;29;20519;-82
2023/05/04 03:42:31;;;;;;;7.85;2.95;;;4.80;99.90;;;;;;4805553;29;20115;-82
2023/05/04 03:44:57;;;;;;;5.05;1.50;;;5.10;99.90;;;;;;4806367;29;20086;-82
2023/05/04 03:47:22;;;;;;;7.13;2.40;;;5.70;99.90;;;;;;4805509;29;20043;-82
2023/05/04 03:49:48;;;;;;;5.35;2.63;;;5.70;99.90;;;;;;4806727;29;20125;-82
2023/05/04 03:52:14;;;;;;;6.97;3.08;;;5.00;99.90;;;;;;4805685;29;20099;-83
2023/05/04 03:54:39;;;;;;;5.80;2.78;;;6.10;99.90;;;;;;4805471;29;20576;-82
2023/05/04 03:57:05;;;;;;;6.25;2.45;;;5.50;99.90;;;;;;4806190;29;20058;-85
2023/05/04 03:59:31;;;;;;;7.25;3.13;;;4.60;99.90;;;;;;4806244;29;20035;-82
2023/05/04 04:01:57;;;;;;;6.05;2.95;;;5.10;99.90;;;;;;4806090;29;20776;-81
2023/05/04 04:04:22;;;;;;;5.18;2.35;;;5.70;99.90;;;;;;4789116;29;20047;-82
2023/05/04 04:06:48;;;;;;;6.18;2.40;;;5.20;99.90;;;;;;4789356;29;20042;-82
2023/05/04 04:09:14;;;;;;;7.30;2.47;;;5.20;99.90;;;;;;4807464;29;20065;-83
2023/05/04 04:11:40;;;;;;;5.55;2.28;;;4.80;99.90;;;;;;4824370;29;20085;-82
2023/05/04 04:14:06;;;;;;;6.50;2.78;;;4.20;99.90;;;;;;4821159;29;20470;-81
2023/05/04 04:16:31;;;;;;;5.72;2.72;;;6.30;99.90;;;;;;4826757;29;20086;-82
2023/05/04 04:18:57;;;;;;;6.50;2.83;;;5.30;99.90;;;;;;4826711;29;20054;-82
2023/05/04 04:21:23;;;;;;;5.63;2.17;;;5.30;99.90;;;;;;4818038;29;20130;-81
2023/05/04 04:23:49;;;;;;;8.50;3.55;;;6.30;99.90;;;;;;4807679;29;20042;-82
2023/05/04 04:26:14;;;;;;;5.47;2.53;;;5.90;99.90;;;;;;4810648;29;20054;-82
2023/05/04 04:28:40;;;;;;;6.00;2.75;;;6.30;99.90;;;;;;4826864;29;20070;-82
2023/05/04 04:31:06;;;;;;;5.25;2.35;;;5.90;99.90;;;;;;4811615;29;20070;-82
2023/05/04 04:33:33;;;;;;;6.75;2.50;;;5.90;99.90;;;;;;4825136;29;20082;-82
2023/05/04 04:35:59;;;;;;;7.68;2.80;;;6.20;99.90;;;;;;4808320;29;20129;-82
2023/05/04 04:38:25;;;;;;;4.45;2.42;;;6.30;99.90;;;;;;4826405;29;20146;-81
2023/05/04 04:40:50;;;;;;;5.78;2.55;;;5.70;99.90;;;;;;4795223;29;20088;-82
2023/05/04 04:43:17;;;;;;;7.55;2.55;;;6.20;99.90;;;;;;4808528;29;20089;-82
2023/05/04 04:45:44;;;;;;;7.45;2.90;;;6.70;99.90;;;;;;4824300;29;20090;-82
2023/05/04 04:48:10;;;;;;;5.63;2.92;;;5.70;99.90;;;;;;4824909;29;20050;-82
2023/05/04 04:50:39;;;;;;;6.10;2.88;;;5.80;99.90;;;;;;4821974;29;20050;-82
2023/05/04 04:53:04;;;;;;;4.97;2.85;;;6.60;99.90;;;;;;4809380;29;20047;-82
2023/05/04 04:55:31;;;;;;;7.18;2.55;;;6.90;99.90;;;;;;4809429;29;20111;-83
2023/05/04 04:57:57;;;;;;;7.93;2.70;;;6.80;99.90;;;;;;4808383;29;20568;-82
2023/05/04 05:00:22;;;;;;;7.40;3.28;;;5.90;99.90;;;;;;4807981;29;20192;-82
2023/05/04 05:02:48;;;;;;;6.05;2.38;;;5.90;99.90;;;;;;4808072;29;20047;-82
2023/05/04 05:05:14;;;;;;;4.72;2.72;;;6.00;99.90;;;;;;4792770;29;20047;-82
2023/05/04 05:07:40;;;;;;;5.40;2.30;;;6.00;99.90;;;;;;4793117;29;20054;-83
2023/05/04 05:10:07;;;;;;;5.57;2.70;;;6.10;99.90;;;;;;4808043;29;20055;-83
2023/05/04 05:12:33;;;;;;;5.57;2.05;;;6.10;99.90;;;;;;4807996;29;20043;-82
2023/05/04 05:14:58;;;;;;;6.47;2.45;;;6.10;99.90;;;;;;4808677;29;20046;-82
2023/05/04 05:17:25;;;;;;;6.28;2.70;;;6.30;99.90;;;;;;4814204;29;20050;-82
2023/05/04 05:19:51;;;;;;;6.55;2.92;;;6.00;99.90;;;;;;4824107;29;20059;-82
2023/05/04 05:22:17;;;;;;;6.80;2.65;;;6.20;99.90;;;;;;4825602;29;20129;-82
2023/05/04 05:24:42;;;;;;;5.70;2.33;;;6.70;99.90;;;;;;4824124;29;20133;-82
2023/05/04 05:27:08;;;;;;;9.23;2.78;;;7.30;99.90;;;;;;4823810;29;20046;-84
2023/05/04 05:29:34;;;;;;;7.63;2.60;;;4.90;99.90;;;;;;4791971;29;20043;-82
2023/05/04 05:32:00;;;;;;;7.38;2.30;;;7.40;99.90;;;;;;4807652;29;20051;-82
2023/05/04 05:34:26;;;;;;;6.25;3.03;;;6.40;99.90;;;;;;4807772;29;20051;-82
2023/05/04 05:36:52;;;;;;;7.53;2.28;;;6.70;99.90;;;;;;4817585;29;20055;-82
2023/05/04 05:39:18;;;;;;;5.95;2.67;;;7.10;99.90;;;;;;4813401;29;20058;-82
2023/05/04 05:41:43;;;;;;;6.05;2.28;;;7.20;99.90;;;;;;4791225;29;20054;-82
2023/05/04 05:44:09;;;;;;;4.93;1.95;;;6.60;99.90;;;;;;4807399;29;20051;-82
2023/05/04 05:46:35;;;;;;;6.82;2.50;;;6.70;99.90;;;;;;4810221;29;20050;-82
2023/05/04 05:49:00;;;;;;;7.43;2.88;;;6.70;99.90;;;;;;4821979;29;20042;-83
2023/05/04 05:51:26;;;;;;;6.32;2.58;;;6.80;99.90;;;;;;4818982;29;20502;-82
2023/05/04 05:53:52;;;;;;;10.23;2.95;;;6.90;99.90;;;;;;4825345;29;20057;-82
2023/05/04 05:56:17;;;;;;;8.82;3.03;;;7.20;99.90;;;;;;4825371;29;20042;-82
2023/05/04 05:58:43;;;;;;;8.35;2.63;;;7.50;99.90;;;;;;4806127;29;20056;-82
2023/05/04 06:01:09;;;;;;;7.90;3.00;;;7.10;99.90;;;;;;4793600;29;20054;-83
2023/05/04 06:03:34;;;;;;;7.82;2.63;;;7.40;99.90;;;;;;4807047;29;20082;-85
2023/05/04 06:06:00;;;;;;;7.95;2.65;;;7.20;99.90;;;;;;4799679;29;20404;-83
2023/05/04 06:08:26;;;;;;;7.68;2.13;;;7.30;99.90;;;;;;4802368;29;20104;-82
2023/05/04 06:10:53;;;;;;;7.45;3.28;;;7.40;99.90;;;;;;4808078;29;20050;-83
2023/05/04 06:13:19;;;;;;;4.28;2.03;;;7.40;99.90;;;;;;4807066;29;20047;-82
2023/05/04 06:15:51;;;;;;;7.75;2.42;;;7.90;99.90;;;;;;4819704;29;20505;-82
2023/05/04 06:18:17;;;;;;;10.68;3.08;;;7.60;99.90;;;;;;4822710;29;20109;-85
2023/05/04 06:20:43;;;;;;;6.53;2.97;;;7.90;99.90;;;;;;4823579;29;20468;-83
2023/05/04 06:23:09;;;;;;;9.45;2.42;;;8.50;99.90;;;;;;4820676;29;20086;-83
2023/05/04 06:25:35;;;;;;;11.40;3.05;;;7.30;99.90;;;;;;4822237;29;20073;-81
2023/05/04 06:28:01;;;;;;;10.00;2.65;;;8.40;99.90;;;;;;4812334;29;20047;-83
2023/05/04 06:30:26;;;;;;;8.80;3.10;;;8.00;99.90;;;;;;4792248;29;20113;-83
2023/05/04 06:32:52;;;;;;;8.70;3.05;;;8.10;99.90;;;;;;4806496;29;20058;-84
2023/05/04 06:35:18;;;;;;;6.75;2.42;;;8.00;99.90;;;;;;4810641;29;20055;-83
2023/05/04 06:37:44;;;;;;;7.50;2.55;;;8.20;99.90;;;;;;4791704;29;20058;-85
2023/05/04 06:40:10;;;;;;;11.02;3.08;;;8.30;99.90;;;;;;4815992;29;20047;-84
2023/05/04 06:42:36;;;;;;;7.47;2.42;;;8.30;99.90;;;;;;4807224;29;20465;-83
2023/05/04 06:45:02;;;;;;;6.70;3.05;;;8.40;99.90;;;;;;4792648;29;20042;-84
2023/05/04 06:47:28;;;;;;;8.27;3.60;;;8.50;99.90;;;;;;4791372;29;20066;-83
2023/05/04 06:49:53;;;;;;;7.78;2.95;;;9.40;99.90;;;;;;4790813;29;20050;-86
2023/05/04 06:52:20;;;;;;;7.05;3.08;;;8.60;99.90;;;;;;4784733;29;20527;-84
2023/05/04 06:54:46;;;;;;;9.73;2.90;;;8.60;99.90;;;;;;4790717;29;20061;-84
2023/05/04 06:57:12;;;;;;;8.60;2.80;;;9.50;99.90;;;;;;4781632;29;20043;-85
2023/05/04 06:59:37;;;;;;;7.28;2.92;;;8.60;99.90;;;;;;4805221;29;20403;-83
2023/05/04 07:02:03;;;;;;;6.72;3.05;;;8.90;99.90;;;;;;4820167;29;20060;-83
2023/05/04 07:04:29;;;;;;;6.63;2.35;;;9.00;99.90;;;;;;4822322;29;20042;-82
2023/05/04 07:06:55;;;;;;;7.13;2.45;;;9.10;99.90;;;;;;4824603;29;20136;-83
2023/05/04 07:09:21;;;;;;;16.23;6.25;;;9.80;99.90;;;;;;4822868;29;20086;-83
2023/05/04 07:11:47;;;;;;;9.10;2.65;;;9.30;99.90;;;;;;4791233;29;20085;-83
2023/05/04 07:14:14;;;;;;;6.35;3.22;;;9.40;99.90;;;;;;4823780;29;20046;-84
2023/05/04 07:16:40;;;;;;;7.38;3.28;;;9.40;99.90;;;;;;4824437;29;20046;-82
2023/05/04 07:19:05;;;;;;;11.50;3.30;;;9.50;99.90;;;;;;4806699;29;20070;-82
2023/05/04 07:21:32;;;;;;;7.07;3.22;;;9.70;99.90;;;;;;4814125;29;20058;-81
2023/05/04 07:23:57;;;;;;;7.28;3.17;;;9.80;99.90;;;;;;4812192;29;20098;-82
2023/05/04 07:26:23;;;;;;;6.10;2.95;;;9.90;99.90;;;;;;4821920;29;20137;-82
2023/05/04 07:28:49;;;;;;;5.72;2.25;;;10.00;99.90;;;;;;4824164;29;20043;-82
2023/05/04 07:31:18;;;;;;;5.63;2.75;;;10.10;99.90;;;;;;4822525;29;20059;-82
2023/05/04 07:33:44;;;;;;;8.75;3.63;;;10.10;99.90;;;;;;4806527;29;20465;-82
2023/05/04 07:36:10;;;;;;;8.80;2.72;;;10.20;99.90;;;;;;4823811;29;20129;-83
2023/05/04 07:38:36;;;;;;;8.23;3.53;;;10.40;99.90;;;;;;4812176;29;20050;-82
2023/05/04 07:41:01;;;;;;;8.02;3.38;;;10.50;99.90;;;;;;4789610;29;20054;-82
2023/05/04 07:43:27;;;;;;;7.93;2.78;;;10.60;99.90;;;;;;4806144;29;20051;-83
2023/05/04 07:45:53;;;;;;;11.05;3.35;;;10.80;99.90;;;;;;4822143;29;20061;-82
2023/05/04 07:48:19;;;;;;;6.65;2.88;;;10.80;99.90;;;;;;4822463;29;20076;-82
2023/05/04 07:50:45;;;;;;;7.63;3.35;;;10.90;99.90;;;;;;4794092;29;20123;-82
2023/05/04 07:53:11;;;;;;;6.18;2.90;;;11.00;99.90;;;;;;4806100;29;20584;-82
2023/05/04 07:55:40;;;;;;;5.90;2.53;;;11.10;99.90;;;;;;4800750;29;20056;-83
2023/05/04 07:58:06;;;;;;;5.15;3.13;;;11.20;99.90;;;;;;4807875;29;20406;-83
2023/05/04 08:00:32;;;;;;;9.63;2.92;;;11.30;99.90;;;;;;4807401;29;20134;-82
2023/05/04 08:02:58;;;;;;;11.27;2.88;;;11.40;99.90;;;;;;4806529;29;20223;-83
2023/05/04 08:05:23;;;;;;;6.28;2.30;;;11.50;99.90;;;;;;4809594;29;20046;-85
2023/05/04 08:07:49;;;;;;;6.47;2.20;;;11.60;99.90;;;;;;4823407;29;20106;-83
2023/05/04 08:10:15;;;;;;;6.97;2.38;;;11.60;99.90;;;;;;4807042;29;20049;-82
2023/05/04 08:12:41;;;;;;;2.95;2.00;;;11.60;99.90;;;;;;4811995;29;20097;-82
2023/05/04 08:15:07;;;;;;;6.28;2.60;;;11.80;99.90;;;;;;4789615;29;20055;-83
2023/05/04 08:17:38;;;;;;;4.80;2.45;;;11.90;99.90;;;;;;4823226;29;20077;-82
2023/05/04 08:20:08;;;;;;;7.45;2.28;;;11.90;99.90;;;;;;4820646;29;20125;-83
2023/05/04 08:22:35;;;;;;;9.15;2.40;;;11.70;99.90;;;;;;4789934;29;20054;-82
2023/05/04 08:25:01;;;;;;;4.43;2.10;;;12.10;99.90;;;;;;4806252;29;20519;-84
2023/05/04 08:27:26;;;;;;;7.18;2.20;;;12.20;99.90;;;;;;4805941;29;20059;-83
2023/05/04 08:29:52;;;;;;;7.15;3.22;;;12.20;99.90;;;;;;4789269;29;20091;-83
2023/05/04 08:32:18;;;;;;;5.97;2.53;;;12.20;99.90;;;;;;4806886;29;20046;-83
2023/05/04 08:34:44;;;;;;;6.80;2.38;;;12.40;99.90;;;;;;4807604;29;20463;-83
2023/05/04 08:37:10;;;;;;;6.20;2.28;;;12.50;99.90;;;;;;4806679;29;20047;-84
2023/05/04 08:39:36;;;;;;;3.65;2.17;;;12.60;99.90;;;;;;4790289;29;20463;-84
2023/05/04 08:42:04;;;;;;;4.05;2.15;;;12.70;99.90;;;;;;4813216;29;20057;-83
2023/05/04 08:44:30;;;;;;;8.00;2.55;;;12.80;99.90;;;;;;4789414;29;20077;-86
2023/05/04 08:46:56;;;;;;;5.38;1.95;;;12.80;99.90;;;;;;4821551;29;20054;-82
2023/05/04 08:49:23;;;;;;;7.68;2.47;;;12.70;99.90;;;;;;4823329;29;20397;-82
2023/05/04 08:51:51;;;;;;;7.50;3.28;;;13.10;99.90;;;;;;4821768;29;20050;-83
2023/05/04 08:54:18;;;;;;;6.28;2.33;;;13.00;99.90;;;;;;4805012;29;20054;-82
2023/05/04 08:56:45;;;;;;;7.70;2.10;;;13.00;99.90;;;;;;4808479;29;20087;-83
2023/05/04 08:59:19;;;;;;;4.43;2.05;;;13.20;99.90;;;;;;4792145;29;20054;-84
2023/05/04 09:01:49;;;;;;;5.50;2.42;;;13.20;99.90;;;;;;4807906;29;20055;-82
2023/05/04 09:04:17;;;;;;;6.65;2.10;;;13.40;99.90;;;;;;4792985;29;20107;-82
2023/05/04 09:06:42;;;;;;;3.40;2.28;;;13.50;99.90;;;;;;4795926;29;20507;-84
2023/05/04 09:09:09;;;;;;;5.57;2.72;;;13.60;99.90;;;;;;4826151;29;20054;-82
2023/05/04 09:11:35;;;;;;;4.53;1.85;;;13.60;99.90;;;;;;4808377;29;20137;-83
2023/05/04 09:14:01;;;;;;;7.53;2.13;;;13.80;99.90;;;;;;4825907;29;20188;-83
2023/05/04 09:16:34;;;;;;;5.47;2.70;;;13.90;99.90;;;;;;4825944;29;20069;-82
2023/05/04 09:19:00;;;;;;;6.95;2.00;;;13.90;99.90;;;;;;4824020;29;20129;-83
2023/05/04 09:21:29;;;;;;;5.45;2.08;;;14.00;99.90;;;;;;4826104;29;20058;-82
2023/05/04 09:23:56;;;;;;;4.80;2.20;;;14.10;99.90;;;;;;4820157;29;20046;-82
2023/05/04 09:26:27;;;;;;;6.50;2.90;;;14.00;99.90;;;;;;4791598;29;20059;-82
2023/05/04 09:28:53;;;;;;;4.70;2.10;;;14.20;99.90;;;;;;4816326;29;20058;-83
2023/05/04 09:31:19;;;;;;;3.72;2.03;;;14.20;99.90;;;;;;4825682;29;20515;-83
2023/05/04 09:33:45;;;;;;;7.05;2.28;;;14.30;99.90;;;;;;4824097;29;20058;-83
2023/05/04 09:36:16;;;;;;;8.45;2.55;;;14.40;99.90;;;;;;4826197;29;20116;-85
2023/05/04 09:38:42;;;;;;;4.93;2.30;;;14.40;99.90;;;;;;4824264;29;20135;-85
2023/05/04 09:41:08;;;;;;;7.25;2.58;;;14.60;99.90;;;;;;4798311;29;20042;-83
2023/05/04 09:43:41;;;;;;;5.05;2.20;;;14.70;99.90;;;;;;4808611;29;20051;-84
2023/05/04 09:46:16;;;;;;;4.13;2.05;;;14.80;99.90;;;;;;4807252;29;20047;-83
2023/05/04 09:48:51;;;;;;;3.95;2.33;;;15.00;99.90;;;;;;4807570;29;20050;-83
2023/05/04 09:51:22;;;;;;;5.68;1.90;;;15.10;99.90;;;;;;4816004;29;20420;-84
2023/05/04 09:53:51;;;;;;;7.40;2.45;;;15.10;99.90;;;;;;4791388;29;20058;-83
2023/05/04 09:56:27;;;;;;;6.25;1.90;;;15.40;99.90;;;;;;4808331;29;20569;-83
2023/05/04 09:58:58;;;;;;;3.90;2.10;;;15.60;99.90;;;;;;4791313;29;20085;-84
2023/05/04 10:01:30;;;;;;;10.80;2.63;;;15.60;99.90;;;;;;4818282;29;20052;-83
2023/05/04 10:03:57;;;;;;;7.85;2.97;;;15.60;99.90;;;;;;4825742;29;20102;-84
2023/05/04 10:06:23;;;;;;;5.78;1.90;;;15.70;99.90;;;;;;4823396;29;20089;-84
2023/05/04 10:08:49;;;;;;;8.48;2.90;;;15.80;99.90;;;;;;4825166;29;20133;-83
2023/05/04 10:11:18;;;;;;;5.07;2.20;;;15.70;99.90;;;;;;4823347;29;20051;-84
2023/05/04 10:13:50;;;;;;;4.45;2.35;;;15.90;99.90;;;;;;4808688;29;20062;-84
2023/05/04 10:16:40;;;;;;;4.00;1.70;;;16.10;99.90;;;;;;4806617;29;20051;-85
2023/05/04 10:19:21;;;;;;;12.27;1.92;;;16.30;99.90;;;;;;4806705;29;20600;-86
2023/05/04 10:21:58;;;;;;;3.20;1.45;;;16.50;99.90;;;;;;4807623;29;20047;-85
2023/05/04 10:24:39;;;;;;;5.60;2.22;;;16.80;99.90;;;;;;4776622;29;20115;-85
2023/05/04 10:27:17;;;;;;;5.93;1.38;;;16.80;99.90;;;;;;4790626;29;20058;-83
2023/05/04 10:29:49;;;;;;;5.15;1.45;;;17.00;99.90;;;;;;4806624;29;20124;-83
2023/05/04 10:32:20;;;;;;;6.30;1.85;;;17.10;99.90;;;;;;4791355;29;20058;-83
2023/05/04 10:34:47;;;;;;;3.95;1.30;;;17.10;99.30;;;;;;4823160;29;20062;-84
2023/05/04 10:37:18;;;;;;;4.00;1.52;;;17.30;99.90;;;;;;4803255;29;20042;-87
2023/05/04 10:39:53;;;;;;;4.13;1.42;;;17.30;99.70;;;;;;4821748;29;20054;-84
2023/05/04 10:42:20;;;;;;;2.72;1.58;;;17.40;98.30;;;;;;4813436;29;20054;-85
2023/05/04 10:44:55;;;;;;;6.05;1.40;;;17.60;99.10;;;;;;4822964;29;20047;-85
2023/05/04 10:47:31;;;;;;;4.78;1.00;;;17.50;99.30;;;;;;4824393;29;20581;-85
2023/05/04 10:50:07;;;;;;;2.85;1.38;;;17.90;99.00;;;;;;4823316;29;20129;-86
2023/05/04 10:52:44;;;;;;;4.63;1.35;;;17.90;98.80;;;;;;4809109;29;20592;-87
2023/05/04 10:55:10;;;;;;;2.35;1.65;;;18.00;99.20;;;;;;4807017;29;20110;-87
2023/05/04 10:57:55;;;;;;;2.33;1.35;;;18.20;99.10;;;;;;4790225;29;20053;-87
2023/05/04 11:00:35;;;;;;;2.30;1.43;;;18.20;99.50;;;;;;4790290;29;20054;-85
2023/05/04 11:03:06;;;;;;;3.60;1.65;;;18.10;96.50;;;;;;4805995;29;20051;-88
2023/05/04 11:05:45;;;;;;;3.47;1.40;;;18.30;97.40;;;;;;4817197;29;20043;-88
2023/05/04 11:08:16;;;;;;;3.97;1.42;;;18.50;97.50;;;;;;4816087;29;20099;-86
2023/05/04 11:10:42;;;;;;;3.80;1.20;;;18.50;97.70;;;;;;4806048;29;20090;-84
2023/05/04 11:13:14;;;;;;;3.97;1.80;;;18.70;97.50;;;;;;4806422;29;20050;-86
2023/05/04 11:15:50;;;;;;;2.78;1.38;;;18.70;96.30;;;;;;4806505;29;20065;-87
2023/05/04 11:18:36;;;;;;;4.90;1.50;;;18.90;97.30;;;;;;4806366;29;20397;-87
2023/05/04 11:21:03;;;;;;;3.17;1.63;;;19.10;96.80;;;;;;4805805;29;20141;-90
2023/05/04 11:23:29;;;;;;;4.57;1.38;;;19.20;95.50;;;;;;4793095;29;20038;-85
2023/05/04 11:25:55;;;;;;;3.80;1.55;;;19.30;95.60;;;;;;4806105;29;20058;-84
2023/05/04 11:28:32;;;;;;;2.45;1.10;;;19.60;96.40;;;;;;4821416;29;20049;-84
2023/05/04 11:31:00;;;;;;;3.42;1.50;;;19.30;94.80;;;;;;4805570;29;20047;-87
2023/05/04 11:33:28;;;;;;;8.68;1.83;;;19.40;95.30;;;;;;4805604;29;20047;-87
2023/05/04 11:36:00;;;;;;;6.88;1.80;;;19.50;95.10;;;;;;4803932;29;20050;-86
2023/05/04 11:38:26;;;;;;;4.60;1.77;;;19.50;94.80;;;;;;4815217;29;20046;-85
2023/05/04 11:40:52;;;;;;;5.28;1.92;;;19.50;94.40;;;;;;4809442;29;20050;-86
2023/05/04 11:43:18;;;;;;;3.03;1.48;;;19.40;93.80;;;;;;4816491;29;20046;-90
2023/05/04 11:45:47;;;;;;;5.18;2.35;;;19.30;95.20;;;;;;4789197;29;20093;-85
2023/05/04 11:48:13;;;;;;;7.82;2.67;;;19.40;94.90;;;;;;4789197;29;20046;-87
2023/05/04 11:50:40;;;;;;;3.60;1.55;;;19.80;95.30;;;;;;4790380;29;20065;-89
2023/05/04 11:53:20;;;;;;;5.10;1.95;;;19.70;94.40;;;;;;4789342;29;20120;-87
2023/05/04 11:55:46;;;;;;;2.22;1.10;;;20.10;95.70;;;;;;4805869;29;20050;-86
2023/05/04 11:58:12;;;;;;;7.25;1.73;;;20.30;95.30;;;;;;4789160;29;20090;-86
2023/05/04 12:00:43;;;;;;;2.30;1.20;;;20.20;93.10;;;;;;4806390;29;20058;-86
2023/05/04 12:03:38;;;;;;;3.08;1.80;;;20.30;93.20;;;;;;4806078;29;20054;-86
2023/05/04 12:06:05;;;;;;;3.97;1.52;;;20.10;93.10;;;;;;4805292;29;20076;-85
2023/05/04 12:08:40;;;;;;;3.95;2.10;;;20.20;93.20;;;;;;4805501;29;20055;-84
2023/05/04 12:11:23;;;;;;;4.65;1.92;;;20.00;92.70;;;;;;4789727;29;20085;-84
2023/05/04 12:14:01;;;;;;;9.65;2.30;;;20.10;92.70;;;;;;4800644;29;20051;-83
2023/05/04 12:16:27;;;;;;;4.38;2.05;;;20.20;93.20;;;;;;4817421;29;20054;-86
2023/05/04 12:19:05;;;;;;;4.00;1.50;;;19.80;92.90;;;;;;4813246;29;20073;-86
2023/05/04 12:21:32;;;;;;;3.97;1.75;;;20.00;94.40;;;;;;4810633;29;20070;-87
2023/05/04 12:23:58;;;;;;;3.55;1.40;;;20.20;92.40;;;;;;4790816;29;20055;-86
2023/05/04 12:26:23;;;;;;;3.38;2.25;;;20.40;93.70;;;;;;4807486;29;20055;-87
2023/05/04 12:28:50;;;;;;;2.63;1.45;;;20.50;91.60;;;;;;4807036;29;20057;-88
2023/05/04 12:31:16;;;;;;;4.65;2.08;;;20.50;93.80;;;;;;4808853;29;20057;-86
2023/05/04 12:33:41;;;;;;;4.68;1.73;;;20.40;92.00;;;;;;4824699;29;20046;-88
2023/05/04 12:36:07;;;;;;;2.65;1.77;;;20.70;93.20;;;;;;4817192;29;20118;-86
2023/05/04 12:38:33;;;;;;;4.97;2.03;;;20.80;91.60;;;;;;4786528;29;20056;-85
2023/05/04 12:41:03;;;;;;;2.55;1.80;;;20.90;91.10;;;;;;4811413;29;20492;-86
2023/05/04 12:43:30;;;;;;;6.35;2.00;;;20.70;91.60;;;;;;4808600;29;20123;-86
2023/05/04 12:45:56;;;;;;;5.32;2.05;;;20.80;91.20;;;;;;4792415;29;20080;-87
2023/05/04 12:48:22;;;;;;;5.35;1.80;;;20.70;92.40;;;;;;4808548;29;20043;-87
2023/05/04 12:50:51;;;;;;;6.47;2.63;;;20.70;90.40;;;;;;4809335;29;20118;-86
2023/05/04 12:53:31;;;;;;;7.20;2.75;;;20.50;91.40;;;;;;4819839;29;20133;-91
2023/05/04 12:55:58;;;;;;;5.03;2.40;;;20.40;90.80;;;;;;4811296;29;20538;-90